This is the latest recevied weather packets stored in our database for station/object AD8BV. If no packets are shown the sender has not sent any weather packets the latest 1 day(s).
| Time | Temp. | Humidity | Pressure | Rain* | Wind** | Luminosity | Snow |
|---|---|---|---|---|---|---|---|
| 1778003797 | 12.22° C | 68% | 1009.6 hPa | 0 mm | 0.89 m/s, 296° | 146 W/m² | - |
| 1778003494 | 12.22° C | 66% | 1009.4 hPa | 0 mm | 1.34 m/s, 345° | 189 W/m² | - |
| 1778003190 | 12.78° C | 66% | 1009.5 hPa | 0 mm | 0.45 m/s, 285° | 266 W/m² | - |
| 1778002886 | 12.78° C | 64% | 1009.3 hPa | 0 mm | 1.79 m/s, 218° | 264 W/m² | - |
| 1778002583 | 12.78° C | 66% | 1009.1 hPa | 0 mm | 0.45 m/s, 297° | 357 W/m² | - |
| 1778002280 | 12.78° C | 66% | 1009.1 hPa | 0 mm | 0.89 m/s, 231° | 329 W/m² | - |
| 1778001978 | 12.78° C | 67% | 1008.9 hPa | 0 mm | 0.89 m/s, 280° | 353 W/m² | - |
| 1778001674 | 12.78° C | 70% | 1008.8 hPa | 0 mm | 0.45 m/s, 259° | 324 W/m² | - |
| 1778001369 | 12.22° C | 68% | 1008.8 hPa | 0 mm | 0.45 m/s, 278° | 312 W/m² | - |
| 1778001066 | 11.67° C | 71% | 1008.8 hPa | 0 mm | 1.79 m/s, 19° | 288 W/m² | - |
| 1778000763 | 12.22° C | 71% | 1008.9 hPa | 0 mm | 0.89 m/s, 306° | 257 W/m² | - |
| 1778000459 | 11.67° C | 71% | 1008.6 hPa | 0 mm | 1.34 m/s, 218° | 258 W/m² | - |
| 1778000154 | 12.22° C | 70% | 1008.7 hPa | 0 mm | 0.89 m/s, 284° | 303 W/m² | - |
| 1777999851 | 12.78° C | 71% | 1008.6 hPa | 0 mm | 0.45 m/s, 241° | 451 W/m² | - |
| 1777999546 | 12.78° C | 70% | 1008.8 hPa | 0 mm | 0.89 m/s, 270° | 376 W/m² | - |
| 1777999245 | 12.22° C | 72% | 1008.9 hPa | 0 mm | 0 m/s | 702 W/m² | - |
| 1777998943 | 11.67° C | 75% | 1009.2 hPa | 0 mm | 0.45 m/s, 280° | 358 W/m² | - |
| 1777998639 | 11.67° C | 76% | 1008.9 hPa | 0 mm | 0.45 m/s, 285° | 535 W/m² | - |
| 1777998332 | 11.11° C | 78% | 1008.9 hPa | 0 mm | 0.45 m/s, 287° | 443 W/m² | - |
| 1777998029 | 10.56° C | 78% | 1008.8 hPa | 0 mm | 1.34 m/s, 254° | 291 W/m² | - |
| 1777997726 | 10.56° C | 78% | 1009.2 hPa | 0 mm | 1.34 m/s, 285° | 240 W/m² | - |
| 1777997423 | 10° C | 80% | 1009.3 hPa | 0 mm | 1.34 m/s, 288° | 185 W/m² | - |
| 1777997121 | 10° C | 81% | 1009.3 hPa | 0 mm | 0.45 m/s, 284° | 169 W/m² | - |
| 1777996818 | 10° C | 81% | 1009.2 hPa | 0 mm | 1.34 m/s, 36° | 194 W/m² | - |
| 1777996514 | 10.56° C | 84% | 1009.2 hPa | 0 mm | 0 m/s | 206 W/m² | - |
* Rain latest hour (hover to see other rain measurements)
** Current wind speed in m/s (hover to see current wind gust speed)